sensor_id;sensor_type;location;lat;lon;timestamp;pressure;altitude;pressure_sealevel;temperature;humidity
73016;BME280;61893;50.074;14.440;2023-03-01T00:02:53;99664.88;;;-1.67;69.12
73016;BME280;61893;50.074;14.440;2023-03-01T00:05:25;99669.03;;;-1.89;70.40
73016;BME280;61893;50.074;14.440;2023-03-01T00:07:54;99669.38;;;-1.72;70.17
73016;BME280;61893;50.074;14.440;2023-03-01T00:10:21;99668.72;;;-1.78;70.24
73016;BME280;61893;50.074;14.440;2023-03-01T00:12:51;99667.03;;;-1.79;70.49
73016;BME280;61893;50.074;14.440;2023-03-01T00:15:25;99661.94;;;-1.84;70.25
73016;BME280;61893;50.074;14.440;2023-03-01T00:18:14;99663.47;;;-1.77;70.02
73016;BME280;61893;50.074;14.440;2023-03-01T00:20:40;99661.63;;;-1.73;69.51
73016;BME280;61893;50.074;14.440;2023-03-01T00:23:16;99667.03;;;-1.79;70.01
73016;BME280;61893;50.074;14.440;2023-03-01T00:25:59;99676.44;;;-1.75;70.14
73016;BME280;61893;50.074;14.440;2023-03-01T00:28:44;99675.63;;;-1.77;69.91
73016;BME280;61893;50.074;14.440;2023-03-01T00:31:15;99663.06;;;-1.93;70.16
73016;BME280;61893;50.074;14.440;2023-03-01T00:33:56;99658.56;;;-1.88;70.52
73016;BME280;61893;50.074;14.440;2023-03-01T00:36:36;99655.31;;;-1.94;70.10
73016;BME280;61893;50.074;14.440;2023-03-01T00:39:09;99652.69;;;-1.94;70.85
73016;BME280;61893;50.074;14.440;2023-03-01T00:41:42;99642.44;;;-2.00;70.54
73016;BME280;61893;50.074;14.440;2023-03-01T00:44:15;99638.25;;;-2.06;71.13
73016;BME280;61893;50.074;14.440;2023-03-01T00:46:42;99646.06;;;-2.06;71.54
73016;BME280;61893;50.074;14.440;2023-03-01T00:49:07;99641.66;;;-2.02;71.21
73016;BME280;61893;50.074;14.440;2023-03-01T00:51:37;99645.09;;;-2.02;71.05
73016;BME280;61893;50.074;14.440;2023-03-01T00:54:04;99641.13;;;-2.14;71.72
73016;BME280;61893;50.074;14.440;2023-03-01T00:56:31;99653.31;;;-2.16;71.66
73016;BME280;61893;50.074;14.440;2023-03-01T00:58:57;99645.81;;;-2.27;72.53
73016;BME280;61893;50.074;14.440;2023-03-01T01:01:25;99640.50;;;-2.23;71.97
73016;BME280;61893;50.074;14.440;2023-03-01T01:03:57;99636.94;;;-2.19;72.39
73016;BME280;61893;50.074;14.440;2023-03-01T01:06:26;99639.47;;;-2.47;72.82
73016;BME280;61893;50.074;14.440;2023-03-01T01:08:53;99637.50;;;-2.39;73.10
73016;BME280;61893;50.074;14.440;2023-03-01T01:11:21;99638.34;;;-2.39;73.03
73016;BME280;61893;50.074;14.440;2023-03-01T01:13:47;99630.28;;;-2.30;73.02
73016;BME280;61893;50.074;14.440;2023-03-01T01:16:15;99625.25;;;-2.36;72.77
73016;BME280;61893;50.074;14.440;2023-03-01T01:18:42;99627.66;;;-2.30;72.92
73016;BME280;61893;50.074;14.440;2023-03-01T01:21:10;99617.28;;;-2.31;72.86
73016;BME280;61893;50.074;14.440;2023-03-01T01:23:38;99621.25;;;-2.47;73.38
73016;BME280;61893;50.074;14.440;2023-03-01T01:26:15;99619.22;;;-2.38;73.25
73016;BME280;61893;50.074;14.440;2023-03-01T01:28:41;99616.78;;;-2.44;73.25
73016;BME280;61893;50.074;14.440;2023-03-01T01:31:07;99621.16;;;-2.44;73.04
73016;BME280;61893;50.074;14.440;2023-03-01T01:33:39;99623.81;;;-2.46;73.40
73016;BME280;61893;50.074;14.440;2023-03-01T01:36:07;99618.75;;;-2.52;73.98
73016;BME280;61893;50.074;14.440;2023-03-01T01:38:34;99611.63;;;-2.45;73.47
73016;BME280;61893;50.074;14.440;2023-03-01T01:41:01;99619.22;;;-2.38;73.77
73016;BME280;61893;50.074;14.440;2023-03-01T01:43:32;99610.72;;;-2.44;73.70
73016;BME280;61893;50.074;14.440;2023-03-01T01:46:29;99611.56;;;-2.44;73.27
73016;BME280;61893;50.074;14.440;2023-03-01T01:49:00;99612.41;;;-2.43;73.09
73016;BME280;61893;50.074;14.440;2023-03-01T01:51:32;99618.81;;;-2.54;73.77
73016;BME280;61893;50.074;14.440;2023-03-01T01:54:18;99614.44;;;-2.53;73.58
73016;BME280;61893;50.074;14.440;2023-03-01T01:56:50;99612.03;;;-2.59;73.98
73016;BME280;61893;50.074;14.440;2023-03-01T01:59:18;99607.84;;;-2.65;74.31
73016;BME280;61893;50.074;14.440;2023-03-01T02:01:44;99606.53;;;-2.50;74.17
73016;BME280;61893;50.074;14.440;2023-03-01T02:04:11;99606.72;;;-2.56;74.27
73016;BME280;61893;50.074;14.440;2023-03-01T02:06:46;99604.88;;;-2.53;73.81
73016;BME280;61893;50.074;14.440;2023-03-01T02:09:15;99593.81;;;-2.61;74.81
73016;BME280;61893;50.074;14.440;2023-03-01T02:11:43;99598.56;;;-2.75;75.13
73016;BME280;61893;50.074;14.440;2023-03-01T02:14:09;99597.03;;;-2.82;75.27
73016;BME280;61893;50.074;14.440;2023-03-01T02:16:36;99598.81;;;-2.83;75.70
73016;BME280;61893;50.074;14.440;2023-03-01T02:19:03;99594.69;;;-2.60;75.25
73016;BME280;61893;50.074;14.440;2023-03-01T02:22:02;99595.72;;;-2.66;75.13
73016;BME280;61893;50.074;14.440;2023-03-01T02:24:45;99586.28;;;-2.70;75.25
73016;BME280;61893;50.074;14.440;2023-03-01T02:27:16;99585.59;;;-2.77;75.27
73016;BME280;61893;50.074;14.440;2023-03-01T02:29:44;99578.44;;;-2.70;75.02
73016;BME280;61893;50.074;14.440;2023-03-01T02:32:34;99578.06;;;-2.56;74.78
73016;BME280;61893;50.074;14.440;2023-03-01T02:35:19;99581.22;;;-2.75;75.04
73016;BME280;61893;50.074;14.440;2023-03-01T02:37:47;99574.72;;;-2.61;74.59
73016;BME280;61893;50.074;14.440;2023-03-01T02:40:16;99581.03;;;-2.68;74.60
73016;BME280;61893;50.074;14.440;2023-03-01T02:42:55;99580.16;;;-2.69;75.41
73016;BME280;61893;50.074;14.440;2023-03-01T02:45:21;99589.22;;;-2.82;75.60
73016;BME280;61893;50.074;14.440;2023-03-01T02:47:49;99584.09;;;-2.85;75.28
73016;BME280;61893;50.074;14.440;2023-03-01T02:53:35;99582.63;;;-2.96;75.60
73016;BME280;61893;50.074;14.440;2023-03-01T02:56:08;99576.31;;;-2.87;75.54
73016;BME280;61893;50.074;14.440;2023-03-01T02:58:40;99572.84;;;-2.86;75.78
73016;BME280;61893;50.074;14.440;2023-03-01T03:01:13;99578.66;;;-2.78;75.49
73016;BME280;61893;50.074;14.440;2023-03-01T03:03:41;99577.63;;;-2.72;75.03
73016;BME280;61893;50.074;14.440;2023-03-01T03:06:07;99579.38;;;-2.73;75.46
73016;BME280;61893;50.074;14.440;2023-03-01T03:08:33;99583.00;;;-2.77;75.94
73016;BME280;61893;50.074;14.440;2023-03-01T03:10:59;99579.38;;;-2.73;75.77
73016;BME280;61893;50.074;14.440;2023-03-01T03:13:25;99585.44;;;-2.72;75.67
73016;BME280;61893;50.074;14.440;2023-03-01T03:15:55;99582.94;;;-2.75;76.11
73016;BME280;61893;50.074;14.440;2023-03-01T03:18:23;99577.13;;;-2.85;75.93
73016;BME280;61893;50.074;14.440;2023-03-01T03:20:53;99577.09;;;-2.83;76.21
73016;BME280;61893;50.074;14.440;2023-03-01T03:23:20;99574.47;;;-2.83;75.93
73016;BME280;61893;50.074;14.440;2023-03-01T03:25:50;99563.47;;;-2.93;76.37
73016;BME280;61893;50.074;14.440;2023-03-01T03:28:17;99566.91;;;-2.91;76.44
73016;BME280;61893;50.074;14.440;2023-03-01T03:30:44;99564.31;;;-2.92;76.51
73016;BME280;61893;50.074;14.440;2023-03-01T03:33:11;99554.75;;;-2.92;76.54
73016;BME280;61893;50.074;14.440;2023-03-01T03:35:43;99563.38;;;-2.88;76.66
73016;BME280;61893;50.074;14.440;2023-03-01T03:38:11;99555.72;;;-2.95;76.84
73016;BME280;61893;50.074;14.440;2023-03-01T03:40:47;99556.84;;;-3.03;77.17
73016;BME280;61893;50.074;14.440;2023-03-01T03:43:19;99546.16;;;-2.94;76.79
73016;BME280;61893;50.074;14.440;2023-03-01T03:45:47;99544.69;;;-3.04;77.01
73016;BME280;61893;50.074;14.440;2023-03-01T03:48:14;99549.63;;;-2.95;76.97
73016;BME280;61893;50.074;14.440;2023-03-01T03:50:41;99549.69;;;-2.97;77.02
73016;BME280;61893;50.074;14.440;2023-03-01T03:53:11;99549.72;;;-2.98;77.41
73016;BME280;61893;50.074;14.440;2023-03-01T03:55:37;99551.56;;;-3.02;77.26
73016;BME280;61893;50.074;14.440;2023-03-01T03:58:08;99550.84;;;-3.07;77.54
73016;BME280;61893;50.074;14.440;2023-03-01T04:00:43;99549.03;;;-3.03;77.29
73016;BME280;61893;50.074;14.440;2023-03-01T04:03:25;99553.13;;;-2.95;77.09
73016;BME280;61893;50.074;14.440;2023-03-01T04:05:51;99558.69;;;-3.08;77.26
73016;BME280;61893;50.074;14.440;2023-03-01T04:08:21;99552.84;;;-3.17;77.57
73016;BME280;61893;50.074;14.440;2023-03-01T04:10:52;99556.78;;;-3.02;77.28
73016;BME280;61893;50.074;14.440;2023-03-01T04:13:25;99553.53;;;-3.10;77.90
73016;BME280;61893;50.074;14.440;2023-03-01T04:15:52;99549.25;;;-3.12;78.06
73016;BME280;61893;50.074;14.440;2023-03-01T04:18:21;99545.03;;;-3.17;78.06
73016;BME280;61893;50.074;14.440;2023-03-01T04:20:47;99543.56;;;-3.27;78.37
73016;BME280;61893;50.074;14.440;2023-03-01T04:23:33;99547.00;;;-3.25;79.09
73016;BME280;61893;50.074;14.440;2023-03-01T04:26:00;99544.31;;;-3.22;78.25
73016;BME280;61893;50.074;14.440;2023-03-01T04:28:31;99540.75;;;-3.18;78.32
73016;BME280;61893;50.074;14.440;2023-03-01T04:31:16;99543.25;;;-3.14;78.11
73016;BME280;61893;50.074;14.440;2023-03-01T04:34:02;99543.38;;;-3.19;78.40
73016;BME280;61893;50.074;14.440;2023-03-01T04:36:29;99547.44;;;-3.09;78.03
73016;BME280;61893;50.074;14.440;2023-03-01T04:38:55;99559.44;;;-3.03;77.43
73016;BME280;61893;50.074;14.440;2023-03-01T04:41:23;99555.56;;;-3.21;78.06
73016;BME280;61893;50.074;14.440;2023-03-01T04:43:52;99569.13;;;-3.08;77.89
73016;BME280;61893;50.074;14.440;2023-03-01T04:46:38;99557.28;;;-3.20;78.23
73016;BME280;61893;50.074;14.440;2023-03-01T04:49:07;99553.53;;;-3.10;78.02
73016;BME280;61893;50.074;14.440;2023-03-01T04:51:35;99553.78;;;-3.19;78.03
73016;BME280;61893;50.074;14.440;2023-03-01T04:54:01;99559.56;;;-3.08;77.70
73016;BME280;61893;50.074;14.440;2023-03-01T04:56:30;99561.34;;;-3.10;77.59
73016;BME280;61893;50.074;14.440;2023-03-01T04:58:56;99565.88;;;-3.17;78.13
73016;BME280;61893;50.074;14.440;2023-03-01T05:01:31;99562.59;;;-3.23;78.62
73016;BME280;61893;50.074;14.440;2023-03-01T05:03:57;99553.88;;;-3.24;78.57
73016;BME280;61893;50.074;14.440;2023-03-01T05:06:37;99559.81;;;-3.17;78.12
73016;BME280;61893;50.074;14.440;2023-03-01T05:09:04;99559.56;;;-3.08;78.18
73016;BME280;61893;50.074;14.440;2023-03-01T05:11:30;99559.81;;;-3.17;78.18
73016;BME280;61893;50.074;14.440;2023-03-01T05:14:11;99558.22;;;-3.23;78.86
73016;BME280;61893;50.074;14.440;2023-03-01T05:16:37;99563.72;;;-3.35;78.83
73016;BME280;61893;50.074;14.440;2023-03-01T05:19:06;99557.44;;;-3.26;79.02
73016;BME280;61893;50.074;14.440;2023-03-01T05:21:43;99549.53;;;-3.56;79.40
73016;BME280;61893;50.074;14.440;2023-03-01T05:24:32;99540.28;;;-3.33;79.37
73016;BME280;61893;50.074;14.440;2023-03-01T05:26:58;99536.09;;;-3.39;79.21
73016;BME280;61893;50.074;14.440;2023-03-01T05:29:26;99540.19;;;-3.63;80.19
73016;BME280;61893;50.074;14.440;2023-03-01T05:31:59;99548.03;;;-3.65;79.76
73016;BME280;61893;50.074;14.440;2023-03-01T05:34:44;99534.59;;;-3.48;79.71
73016;BME280;61893;50.074;14.440;2023-03-01T05:37:12;99535.06;;;-3.66;80.60
73016;BME280;61893;50.074;14.440;2023-03-01T05:39:50;99532.25;;;-3.57;80.78
73016;BME280;61893;50.074;14.440;2023-03-01T05:42:19;99540.72;;;-3.50;80.38
73016;BME280;61893;50.074;14.440;2023-03-01T05:44:58;99536.00;;;-3.36;79.92
73016;BME280;61893;50.074;14.440;2023-03-01T05:47:24;99541.75;;;-3.23;79.33
73016;BME280;61893;50.074;14.440;2023-03-01T05:49:57;99540.84;;;-3.22;79.17
73016;BME280;61893;50.074;14.440;2023-03-01T05:52:24;99537.16;;;-3.13;78.50
73016;BME280;61893;50.074;14.440;2023-03-01T05:54:50;99538.19;;;-3.21;78.71
73016;BME280;61893;50.074;14.440;2023-03-01T05:57:19;99532.75;;;-3.11;78.51
73016;BME280;61893;50.074;14.440;2023-03-01T05:59:45;99531.19;;;-3.19;79.03
73016;BME280;61893;50.074;14.440;2023-03-01T06:02:11;99532.94;;;-3.18;78.47
73016;BME280;61893;50.074;14.440;2023-03-01T06:04:37;99529.59;;;-2.91;78.23
73016;BME280;61893;50.074;14.440;2023-03-01T06:07:20;99532.09;;;-3.20;79.05
73016;BME280;61893;50.074;14.440;2023-03-01T06:10:23;99524.00;;;-3.09;78.54
73016;BME280;61893;50.074;14.440;2023-03-01T06:13:12;99529.59;;;-2.91;78.09
73016;BME280;61893;50.074;14.440;2023-03-01T06:15:58;99535.34;;;-2.80;77.19
73016;BME280;61893;50.074;14.440;2023-03-01T06:18:28;99539.19;;;-2.64;77.04
73016;BME280;61893;50.074;14.440;2023-03-01T06:21:09;99542.50;;;-2.57;77.11
73016;BME280;61893;50.074;14.440;2023-03-01T06:24:04;99543.78;;;-2.42;76.93
73016;BME280;61893;50.074;14.440;2023-03-01T06:26:35;99546.66;;;-2.52;76.89
73016;BME280;61893;50.074;14.440;2023-03-01T06:29:30;99546.56;;;-2.48;77.50
73016;BME280;61893;50.074;14.440;2023-03-01T06:32:20;99549.97;;;-2.46;76.82
73016;BME280;61893;50.074;14.440;2023-03-01T06:34:56;99546.50;;;-2.47;76.85
73016;BME280;61893;50.074;14.440;2023-03-01T06:37:24;99549.94;;;-2.45;76.98
73016;BME280;61893;50.074;14.440;2023-03-01T06:39:51;99543.78;;;-2.42;76.55
73016;BME280;61893;50.074;14.440;2023-03-01T06:42:17;99540.19;;;-1.84;74.95
73016;BME280;61893;50.074;14.440;2023-03-01T06:44:46;99531.97;;;-0.73;72.40
73016;BME280;61893;50.074;14.440;2023-03-01T06:47:12;99525.28;;;0.10;67.14
73016;BME280;61893;50.074;14.440;2023-03-01T06:49:56;99519.63;;;1.21;63.80
73016;BME280;61893;50.074;14.440;2023-03-01T06:52:45;99515.13;;;1.99;60.66
73016;BME280;61893;50.074;14.440;2023-03-01T06:55:13;99525.50;;;2.37;58.56
73016;BME280;61893;50.074;14.440;2023-03-01T06:58:02;99526.06;;;2.61;58.04
73016;BME280;61893;50.074;14.440;2023-03-01T07:00:35;99533.69;;;2.65;57.57
73016;BME280;61893;50.074;14.440;2023-03-01T07:03:11;99532.47;;;3.06;56.85
73016;BME280;61893;50.074;14.440;2023-03-01T07:05:57;99540.59;;;3.19;54.64
73016;BME280;61893;50.074;14.440;2023-03-01T07:08:32;99531.53;;;3.40;54.37
73016;BME280;61893;50.074;14.440;2023-03-01T07:11:04;99536.50;;;3.13;55.27
73016;BME280;61893;50.074;14.440;2023-03-01T07:13:41;99544.06;;;4.16;53.28
73016;BME280;61893;50.074;14.440;2023-03-01T07:16:08;99544.66;;;4.21;52.42
73016;BME280;61893;50.074;14.440;2023-03-01T07:18:37;99548.03;;;3.59;53.48
73016;BME280;61893;50.074;14.440;2023-03-01T07:21:05;99544.28;;;4.27;51.84
73016;BME280;61893;50.074;14.440;2023-03-01T07:23:33;99545.81;;;5.20;50.00
73016;BME280;61893;50.074;14.440;2023-03-01T07:26:25;99551.13;;;5.90;47.84
73016;BME280;61893;50.074;14.440;2023-03-01T07:29:47;99549.38;;;5.05;50.34
73016;BME280;61893;50.074;14.440;2023-03-01T07:33:05;99547.69;;;5.75;47.86
73016;BME280;61893;50.074;14.440;2023-03-01T07:36:19;99550.22;;;5.62;47.46
73016;BME280;61893;50.074;14.440;2023-03-01T07:39:52;99550.69;;;6.25;46.02
73016;BME280;61893;50.074;14.440;2023-03-01T07:43:33;99549.13;;;6.08;45.58
73016;BME280;61893;50.074;14.440;2023-03-01T07:46:13;99552.38;;;5.84;46.61
73016;BME280;61893;50.074;14.440;2023-03-01T07:49:09;99550.00;;;5.94;46.30
73016;BME280;61893;50.074;14.440;2023-03-01T07:51:46;99546.16;;;5.71;46.39
73016;BME280;61893;50.074;14.440;2023-03-01T07:54:38;99542.00;;;5.96;47.75
73016;BME280;61893;50.074;14.440;2023-03-01T07:57:43;99536.50;;;6.53;44.63
73016;BME280;61893;50.074;14.440;2023-03-01T08:00:48;99529.78;;;7.26;43.07
73016;BME280;61893;50.074;14.440;2023-03-01T08:06:42;99542.34;;;6.71;43.54
73016;BME280;61893;50.074;14.440;2023-03-01T08:09:30;99545.78;;;5.63;45.07
73016;BME280;61893;50.074;14.440;2023-03-01T08:12:20;99538.47;;;5.25;46.89
73016;BME280;61893;50.074;14.440;2023-03-01T08:15:41;99537.66;;;5.80;45.72
73016;BME280;61893;50.074;14.440;2023-03-01T08:19:17;99530.03;;;5.76;45.85
73016;BME280;61893;50.074;14.440;2023-03-01T08:22:34;99521.53;;;7.05;42.73
73016;BME280;61893;50.074;14.440;2023-03-01T08:25:43;99520.47;;;6.02;44.71
73016;BME280;61893;50.074;14.440;2023-03-01T08:29:21;99520.34;;;6.70;44.02
73016;BME280;61893;50.074;14.440;2023-03-01T08:32:50;99523.81;;;6.18;44.35
73016;BME280;61893;50.074;14.440;2023-03-01T08:36:41;99521.09;;;6.85;42.00
73016;BME280;61893;50.074;14.440;2023-03-01T08:39:51;99514.84;;;7.37;42.28
73016;BME280;61893;50.074;14.440;2023-03-01T08:42:54;99522.34;;;6.67;42.53
73016;BME280;61893;50.074;14.440;2023-03-01T08:46:16;99520.59;;;7.18;42.86
73016;BME280;61893;50.074;14.440;2023-03-01T08:49:16;99513.69;;;7.41;41.55
73016;BME280;61893;50.074;14.440;2023-03-01T08:52:19;99519.84;;;7.79;42.27
73016;BME280;61893;50.074;14.440;2023-03-01T08:56:13;99512.47;;;8.19;41.17
73016;BME280;61893;50.074;14.440;2023-03-01T08:59:32;99522.09;;;6.44;43.34
73016;BME280;61893;50.074;14.440;2023-03-01T09:02:51;99501.72;;;7.36;42.65
73016;BME280;61893;50.074;14.440;2023-03-01T09:06:12;99502.53;;;8.34;39.81
73016;BME280;61893;50.074;14.440;2023-03-01T09:09:20;99492.44;;;8.74;39.38
73016;BME280;61893;50.074;14.440;2023-03-01T09:12:35;99487.88;;;8.17;39.01
73016;BME280;61893;50.074;14.440;2023-03-01T09:15:29;99486.56;;;6.36;42.92
73016;BME280;61893;50.074;14.440;2023-03-01T09:17:59;99494.19;;;6.53;42.93
73016;BME280;61893;50.074;14.440;2023-03-01T09:21:32;99488.38;;;6.86;42.80
73016;BME280;61893;50.074;14.440;2023-03-01T09:24:39;99482.81;;;5.57;44.86
73016;BME280;61893;50.074;14.440;2023-03-01T09:28:26;99485.34;;;5.73;44.69
73016;BME280;61893;50.074;14.440;2023-03-01T09:31:50;99479.72;;;6.97;42.24
73016;BME280;61893;50.074;14.440;2023-03-01T09:34:51;99475.28;;;6.97;41.54
73016;BME280;61893;50.074;14.440;2023-03-01T09:38:07;99484.25;;;6.95;41.37
73016;BME280;61893;50.074;14.440;2023-03-01T09:40:35;99468.84;;;6.23;42.47
73016;BME280;61893;50.074;14.440;2023-03-01T09:46:25;99470.53;;;6.90;41.09
73016;BME280;61893;50.074;14.440;2023-03-01T09:49:35;99476.13;;;6.20;41.47
73016;BME280;61893;50.074;14.440;2023-03-01T10:24:23;99428.47;;;5.40;45.23
73016;BME280;61893;50.074;14.440;2023-03-01T10:32:47;99427.59;;;5.54;44.57
73016;BME280;61893;50.074;14.440;2023-03-01T10:41:11;99426.66;;;4.85;45.21
73016;BME280;61893;50.074;14.440;2023-03-01T10:43:56;99424.38;;;4.50;45.60
73016;BME280;61893;50.074;14.440;2023-03-01T10:46:37;99418.81;;;4.69;45.46
73016;BME280;61893;50.074;14.440;2023-03-01T11:15:36;99390.19;;;4.48;45.82
73016;BME280;61893;50.074;14.440;2023-03-01T11:18:29;99386.31;;;4.40;47.13
73016;BME280;61893;50.074;14.440;2023-03-01T11:21:26;99378.34;;;4.41;46.36
73016;BME280;61893;50.074;14.440;2023-03-01T11:24:36;99367.22;;;4.36;46.95
73016;BME280;61893;50.074;14.440;2023-03-01T11:27:41;99373.81;;;4.58;46.67
73016;BME280;61893;50.074;14.440;2023-03-01T11:35:57;99362.59;;;4.25;47.85
73016;BME280;61893;50.074;14.440;2023-03-01T11:38:34;99363.94;;;4.33;47.38
73016;BME280;61893;50.074;14.440;2023-03-01T11:41:30;99355.72;;;4.37;47.44
73016;BME280;61893;50.074;14.440;2023-03-01T11:44:27;99352.88;;;4.12;47.57
73016;BME280;61893;50.074;14.440;2023-03-01T11:47:25;99354.13;;;4.35;47.27
73016;BME280;61893;50.074;14.440;2023-03-01T12:13:21;99323.53;;;4.89;46.32
73016;BME280;61893;50.074;14.440;2023-03-01T12:18:39;99314.09;;;4.85;46.14
73016;BME280;61893;50.074;14.440;2023-03-01T12:21:46;99305.09;;;4.75;46.22
73016;BME280;61893;50.074;14.440;2023-03-01T12:27:40;99308.56;;;5.17;45.56
73016;BME280;61893;50.074;14.440;2023-03-01T12:51:35;99280.66;;;5.93;45.84
73016;BME280;61893;50.074;14.440;2023-03-01T12:54:33;99278.56;;;5.98;45.95
73016;BME280;61893;50.074;14.440;2023-03-01T19:41:02;99227.56;;;2.42;59.69
73016;BME280;61893;50.074;14.440;2023-03-01T19:47:01;99226.28;;;2.34;59.83
73016;BME280;61893;50.074;14.440;2023-03-01T19:49:29;99222.97;;;2.30;60.07
73016;BME280;61893;50.074;14.440;2023-03-01T21:23:47;99240.34;;;1.31;65.21
73016;BME280;61893;50.074;14.440;2023-03-01T22:17:43;99207.06;;;0.62;67.91
73016;BME280;61893;50.074;14.440;2023-03-01T23:39:48;99197.63;;;0.22;70.34
73016;BME280;61893;50.074;14.440;2023-03-01T23:54:56;99196.63;;;-0.13;71.30
73016;BME280;61893;50.074;14.440;2023-03-01T23:58:04;99196.16;;;-0.23;71.35
